createdAt,value
2022-11-10T00:01:19.376Z,9.21
2022-11-10T00:02:39.312Z,9.18
2022-11-10T00:03:59.045Z,9.11
2022-11-10T00:05:19.037Z,9.08
2022-11-10T00:06:38.838Z,9.06
2022-11-10T00:08:02.708Z,9.12
2022-11-10T00:09:22.796Z,9.18
2022-11-10T00:10:42.942Z,9.09
2022-11-10T00:12:02.660Z,9.03
2022-11-10T00:13:24.197Z,9.08
2022-11-10T00:14:44.065Z,9.14
2022-11-10T00:16:04.897Z,9.12
2022-11-10T00:17:24.908Z,9.07
2022-11-10T00:18:45.074Z,9.09
2022-11-10T00:20:05.275Z,9.18
2022-11-10T00:21:25.389Z,9.26
2022-11-10T00:22:45.347Z,9.27
2022-11-10T00:24:05.532Z,9.21
2022-11-10T00:25:26.034Z,9.26
2022-11-10T00:26:46.401Z,9.27
2022-11-10T00:28:06.404Z,9.30
2022-11-10T00:29:26.452Z,9.26
2022-11-10T00:30:47.025Z,9.23
2022-11-10T00:32:07.314Z,9.17
2022-11-10T00:33:27.179Z,9.13
2022-11-10T00:34:47.025Z,9.22
2022-11-10T00:36:06.877Z,9.18
2022-11-10T00:37:26.882Z,9.18
2022-11-10T00:38:49.742Z,9.09
2022-11-10T00:40:09.756Z,9.08
2022-11-10T00:41:29.590Z,9.07
2022-11-10T00:42:49.371Z,9.04
2022-11-10T00:44:09.371Z,9.14
2022-11-10T00:45:29.156Z,9.21
2022-11-10T00:46:49.288Z,9.23
2022-11-10T00:48:09.100Z,9.27
2022-11-10T00:49:29.302Z,9.18
2022-11-10T00:50:49.040Z,9.16
2022-11-10T00:52:08.952Z,9.15
2022-11-10T00:53:28.932Z,9.10
2022-11-10T00:54:48.672Z,9.11
2022-11-10T00:56:08.507Z,9.06
2022-11-10T00:57:28.345Z,9.16
2022-11-10T00:58:48.977Z,9.20
2022-11-10T01:00:09.103Z,9.21
2022-11-10T01:01:28.935Z,9.17
2022-11-10T01:02:49.291Z,9.19
2022-11-10T01:04:08.974Z,9.14
2022-11-10T01:05:35.053Z,9.21
2022-11-10T01:06:54.896Z,9.22
2022-11-10T01:08:15.202Z,9.26
2022-11-10T01:09:35.168Z,9.27
2022-11-10T01:11:01.066Z,9.20
2022-11-10T01:12:21.121Z,9.29
2022-11-10T01:13:41.285Z,9.36
2022-11-10T01:15:01.523Z,9.46
2022-11-10T01:16:23.170Z,9.47
2022-11-10T01:17:43.019Z,9.51
2022-11-10T01:19:03.602Z,9.53
2022-11-10T01:20:24.344Z,9.58
2022-11-10T01:21:44.162Z,9.64
2022-11-10T01:23:04.514Z,9.65
2022-11-10T01:24:24.438Z,9.61
2022-11-10T01:25:44.743Z,9.64
2022-11-10T01:27:04.720Z,9.71
2022-11-10T01:28:24.981Z,9.70
2022-11-10T01:29:44.985Z,9.73
2022-11-10T01:31:15.165Z,9.66
2022-11-10T01:32:34.842Z,9.60
2022-11-10T01:33:54.693Z,9.63
2022-11-10T01:35:14.811Z,9.60
2022-11-10T01:36:34.505Z,9.53
2022-11-10T01:37:54.553Z,9.50
2022-11-10T01:39:14.296Z,9.51
2022-11-10T01:40:34.381Z,9.48
2022-11-10T01:41:54.469Z,9.36
2022-11-10T01:43:14.600Z,9.44
2022-11-10T01:44:34.753Z,9.51
2022-11-10T01:45:56.339Z,9.50
2022-11-10T01:47:16.535Z,9.53
2022-11-10T01:48:42.060Z,9.65
2022-11-10T01:50:02.114Z,9.72
2022-11-10T01:51:24.691Z,9.79
2022-11-10T01:52:46.840Z,9.79
2022-11-10T01:54:08.261Z,9.86
2022-11-10T01:55:28.496Z,9.88
2022-11-10T01:56:50.255Z,9.79
2022-11-10T01:58:12.945Z,9.72
2022-11-10T01:59:35.353Z,9.77
2022-11-10T02:00:55.407Z,9.76
2022-11-10T02:02:29.432Z,9.83
2022-11-10T02:03:50.494Z,9.84
2022-11-10T02:05:10.608Z,9.74
2022-11-10T02:06:33.580Z,9.66
2022-11-10T02:07:54.539Z,9.66
2022-11-10T02:09:14.282Z,9.71
2022-11-10T02:10:34.266Z,9.69
2022-11-10T02:11:55.437Z,9.75
2022-11-10T02:13:15.415Z,9.76
2022-11-10T02:14:35.347Z,9.73
2022-11-10T02:15:55.418Z,9.61
2022-11-10T02:17:15.755Z,9.64
2022-11-10T02:18:36.439Z,9.58
2022-11-10T02:20:03.996Z,9.60
2022-11-10T02:21:24.124Z,9.43
2022-11-10T02:22:44.402Z,9.50
2022-11-10T02:24:04.667Z,9.48
2022-11-10T02:25:32.645Z,9.40
2022-11-10T02:26:55.919Z,9.49
2022-11-10T02:28:15.653Z,9.54
2022-11-10T02:29:35.417Z,9.56
2022-11-10T02:30:55.101Z,9.61
2022-11-10T02:32:15.170Z,9.55
2022-11-10T02:33:35.904Z,9.63
2022-11-10T02:34:55.816Z,9.68
2022-11-10T02:36:15.785Z,9.75
2022-11-10T02:37:36.215Z,9.79
2022-11-10T02:38:56.284Z,9.77
2022-11-10T02:40:16.517Z,9.80
2022-11-10T02:41:36.234Z,9.79
2022-11-10T02:42:55.886Z,9.82
2022-11-10T02:44:15.943Z,9.88
2022-11-10T02:45:35.854Z,9.91
2022-11-10T02:46:56.021Z,9.87
2022-11-10T02:48:16.149Z,9.87
2022-11-10T02:49:35.884Z,9.79
2022-11-10T02:50:55.557Z,9.68
2022-11-10T02:52:15.622Z,9.66
2022-11-10T02:53:35.360Z,9.69
2022-11-10T02:54:55.042Z,9.65
2022-11-10T02:56:15.124Z,9.66
2022-11-10T02:57:34.972Z,9.67
2022-11-10T02:58:55.085Z,9.64
2022-11-10T03:00:15.490Z,9.62
2022-11-10T03:01:35.615Z,9.67
2022-11-10T03:02:59.274Z,9.66
2022-11-10T03:04:19.319Z,9.65
2022-11-10T03:05:39.113Z,9.61
2022-11-10T03:06:59.123Z,9.63
2022-11-10T03:08:19.204Z,9.69
2022-11-10T03:09:38.985Z,9.71
2022-11-10T03:10:59.014Z,9.78
2022-11-10T03:12:18.695Z,9.76
2022-11-10T03:13:58.948Z,9.79
2022-11-10T03:15:18.713Z,9.80
2022-11-10T03:16:38.771Z,9.83
2022-11-10T03:18:02.400Z,9.83
2022-11-10T03:19:22.198Z,9.80
2022-11-10T03:20:42.074Z,9.87
2022-11-10T03:22:01.938Z,9.94
2022-11-10T03:23:22.377Z,9.90
2022-11-10T03:24:42.504Z,9.80
2022-11-10T03:26:05.618Z,9.82
2022-11-10T03:27:25.631Z,9.83
2022-11-10T03:28:45.560Z,9.84
2022-11-10T03:30:06.078Z,9.89
2022-11-10T03:31:26.002Z,9.91
2022-11-10T03:32:45.873Z,9.90
2022-11-10T03:34:05.785Z,9.93
2022-11-10T03:35:26.013Z,9.92
2022-11-10T03:36:45.803Z,9.93
2022-11-10T03:38:05.664Z,9.88
2022-11-10T03:39:25.509Z,9.82
2022-11-10T03:41:16.963Z,9.84
2022-11-10T03:42:25.825Z,9.91
2022-11-10T03:43:45.923Z,9.87
2022-11-10T03:45:06.030Z,9.78
2022-11-10T03:46:25.711Z,9.78
2022-11-10T03:47:45.836Z,9.78
2022-11-10T03:49:05.709Z,9.76
2022-11-10T03:50:25.653Z,9.73
2022-11-10T03:51:45.582Z,9.73
2022-11-10T03:53:05.673Z,9.73
2022-11-10T03:54:25.953Z,9.80
2022-11-10T03:55:45.919Z,9.87
2022-11-10T03:57:06.098Z,9.86
2022-11-10T03:58:25.790Z,9.91
2022-11-10T03:59:45.661Z,9.97
2022-11-10T04:01:05.552Z,9.99
2022-11-10T04:02:25.745Z,9.95
2022-11-10T04:03:51.124Z,10.03
2022-11-10T04:05:11.472Z,10.05
2022-11-10T04:06:31.350Z,9.98
2022-11-10T04:08:00.978Z,9.97
2022-11-10T04:09:20.861Z,9.95
2022-11-10T04:10:41.009Z,9.92
2022-11-10T04:12:01.042Z,9.90
2022-11-10T04:13:21.437Z,9.92
2022-11-10T04:14:41.288Z,9.84
2022-11-10T04:16:01.126Z,9.79
2022-11-10T04:17:21.220Z,9.76
2022-11-10T04:18:41.028Z,9.88
2022-11-10T04:20:00.918Z,9.97
2022-11-10T04:21:20.856Z,9.96
2022-11-10T04:22:40.839Z,9.98
2022-11-10T04:24:00.679Z,10.05
2022-11-10T04:25:20.768Z,10.09
2022-11-10T04:26:40.792Z,10.16
2022-11-10T04:28:00.595Z,10.22
2022-11-10T04:29:20.594Z,10.25
2022-11-10T04:30:40.310Z,10.26
2022-11-10T04:32:00.371Z,10.27
2022-11-10T04:33:20.304Z,10.31
2022-11-10T04:34:40.622Z,10.21
2022-11-10T04:36:00.653Z,10.16
2022-11-10T04:37:20.800Z,10.21
2022-11-10T04:38:40.878Z,10.16
2022-11-10T04:40:00.823Z,10.03
2022-11-10T04:41:21.386Z,9.99
2022-11-10T04:42:41.244Z,9.97
2022-11-10T04:44:01.834Z,9.92
2022-11-10T04:45:21.608Z,9.84
2022-11-10T04:46:41.750Z,9.78
2022-11-10T04:48:01.468Z,9.71
2022-11-10T04:49:21.676Z,9.61
2022-11-10T04:50:41.516Z,9.51
2022-11-10T04:52:01.361Z,9.33
2022-11-10T04:53:21.957Z,9.35
2022-11-10T04:54:42.248Z,9.39
2022-11-10T04:56:02.410Z,9.39
2022-11-10T04:57:22.176Z,9.41
2022-11-10T04:58:42.603Z,9.40
2022-11-10T05:00:02.738Z,9.41
2022-11-10T05:01:24.140Z,9.42
2022-11-10T05:02:44.146Z,9.35
2022-11-10T05:04:03.995Z,9.33
2022-11-10T05:05:24.165Z,9.26
2022-11-10T05:06:43.885Z,9.27
2022-11-10T05:08:04.514Z,9.28
2022-11-10T05:09:24.559Z,9.29
2022-11-10T05:10:44.500Z,9.23
2022-11-10T05:12:04.312Z,9.19
2022-11-10T05:13:24.732Z,9.20
2022-11-10T05:14:44.859Z,9.30
2022-11-10T05:16:04.934Z,9.26
2022-11-10T05:17:25.085Z,9.26
2022-11-10T05:18:45.074Z,9.24
2022-11-10T05:20:05.661Z,9.22
2022-11-10T05:21:25.614Z,9.21
2022-11-10T05:22:49.018Z,9.24
2022-11-10T05:24:09.106Z,9.25
2022-11-10T05:25:29.114Z,9.20
2022-11-10T05:26:48.842Z,9.21
2022-11-10T05:28:09.719Z,9.16
2022-11-10T05:29:29.610Z,9.13
2022-11-10T05:30:49.352Z,9.20
2022-11-10T05:32:09.268Z,9.20
2022-11-10T05:33:29.005Z,9.24
2022-11-10T05:34:49.085Z,9.27
2022-11-10T05:36:10.101Z,9.24
2022-11-10T05:37:30.218Z,9.11
2022-11-10T05:38:50.037Z,9.06
2022-11-10T05:40:10.124Z,9.12
2022-11-10T05:41:29.991Z,9.16
2022-11-10T05:42:50.880Z,9.17
2022-11-10T05:44:10.903Z,9.25
2022-11-10T05:45:30.845Z,9.34
2022-11-10T05:46:50.882Z,9.41
2022-11-10T05:48:10.549Z,9.39
2022-11-10T05:49:30.638Z,9.48
2022-11-10T05:50:50.311Z,9.53
2022-11-10T05:52:10.108Z,9.53
2022-11-10T05:53:30.088Z,9.54
2022-11-10T05:54:49.864Z,9.56
2022-11-10T05:56:09.956Z,9.58
2022-11-10T05:57:30.291Z,9.58
2022-11-10T05:58:50.360Z,9.62
2022-11-10T06:00:10.700Z,9.65
2022-11-10T06:01:30.820Z,9.63
2022-11-10T06:02:57.365Z,9.65
2022-11-10T06:04:17.483Z,9.64
2022-11-10T06:05:37.595Z,9.63
2022-11-10T06:06:57.465Z,9.56
2022-11-10T06:08:17.454Z,9.63
2022-11-10T06:09:37.313Z,9.76
2022-11-10T06:10:57.347Z,9.76
2022-11-10T06:12:16.901Z,9.74
2022-11-10T06:13:36.949Z,9.88
2022-11-10T06:14:57.363Z,9.97
2022-11-10T06:16:17.448Z,9.98
2022-11-10T06:17:37.523Z,10.03
2022-11-10T06:18:57.389Z,10.09
2022-11-10T06:20:17.812Z,10.16
2022-11-10T06:21:37.756Z,10.18
2022-11-10T06:23:02.101Z,10.23
2022-11-10T06:24:22.104Z,10.29
2022-11-10T06:25:42.186Z,10.29
2022-11-10T06:27:01.878Z,10.28
2022-11-10T06:28:21.900Z,10.27
2022-11-10T06:29:41.642Z,10.26
2022-11-10T06:31:01.383Z,10.30
2022-11-10T06:32:21.578Z,10.32
2022-11-10T06:33:41.355Z,10.32
2022-11-10T06:35:01.390Z,10.23
2022-11-10T06:36:21.350Z,10.21
2022-11-10T06:37:41.037Z,10.22
2022-11-10T06:39:00.752Z,10.22
2022-11-10T06:40:20.624Z,10.20
2022-11-10T06:41:40.280Z,10.19
2022-11-10T06:43:00.229Z,10.13
2022-11-10T06:44:20.112Z,10.12
2022-11-10T06:45:39.923Z,10.04
2022-11-10T06:47:00.034Z,9.96
2022-11-10T06:48:19.923Z,9.90
2022-11-10T06:49:40.111Z,9.81
2022-11-10T06:51:00.317Z,9.72
2022-11-10T06:52:20.232Z,9.68
2022-11-10T06:53:40.046Z,9.79
2022-11-10T06:54:59.862Z,9.82
2022-11-10T06:56:20.158Z,9.86
2022-11-10T06:57:40.213Z,9.90
2022-11-10T06:59:00.111Z,9.85
2022-11-10T07:00:20.144Z,9.85
2022-11-10T07:01:39.974Z,9.82
2022-11-10T07:03:00.185Z,9.90
2022-11-10T07:04:20.872Z,9.95
2022-11-10T07:05:41.145Z,9.97
2022-11-10T07:07:01.049Z,9.84
2022-11-10T07:08:21.197Z,9.87
2022-11-10T07:09:41.124Z,9.84
2022-11-10T07:11:01.112Z,9.81
2022-11-10T07:12:20.897Z,9.88
2022-11-10T07:13:40.948Z,9.98
2022-11-10T07:15:00.611Z,10.10
2022-11-10T07:16:24.441Z,10.18
2022-11-10T07:17:44.523Z,10.20
2022-11-10T07:19:04.316Z,10.20
2022-11-10T07:20:24.421Z,10.27
2022-11-10T07:21:44.157Z,10.30
2022-11-10T07:23:05.429Z,10.26
2022-11-10T07:24:25.545Z,10.31
2022-11-10T07:25:45.872Z,10.25
2022-11-10T07:27:05.635Z,10.25
2022-11-10T07:28:28.347Z,10.31
2022-11-10T07:29:48.473Z,10.33
2022-11-10T07:31:08.277Z,10.33
2022-11-10T07:32:28.265Z,10.32
2022-11-10T07:33:51.909Z,10.35
2022-11-10T07:35:14.339Z,10.36
2022-11-10T07:36:34.000Z,10.43
2022-11-10T07:37:54.542Z,10.47
2022-11-10T07:39:14.392Z,10.50
2022-11-10T07:40:34.788Z,10.57
2022-11-10T07:41:54.854Z,10.56
2022-11-10T07:43:14.996Z,10.60
2022-11-10T07:44:34.810Z,10.67
2022-11-10T07:45:54.607Z,10.65
2022-11-10T07:47:14.587Z,10.68
2022-11-10T07:48:34.345Z,10.71
2022-11-10T07:49:54.326Z,10.71
2022-11-10T07:51:14.003Z,10.61
2022-11-10T07:52:34.116Z,10.60
2022-11-10T07:53:54.077Z,10.64
2022-11-10T07:55:14.194Z,10.66
2022-11-10T07:56:34.014Z,10.71
2022-11-10T07:57:57.490Z,10.72
2022-11-10T07:59:17.337Z,10.73
2022-11-10T08:00:37.658Z,10.79
2022-11-10T08:01:57.849Z,10.85
2022-11-10T08:03:19.090Z,10.88
2022-11-10T08:04:39.550Z,10.83
2022-11-10T08:05:59.362Z,10.80
2022-11-10T08:07:19.384Z,10.82
2022-11-10T08:08:39.474Z,10.81
2022-11-10T08:09:59.296Z,10.81
2022-11-10T08:11:19.458Z,10.84
2022-11-10T08:12:39.423Z,10.83
2022-11-10T08:13:59.524Z,10.77
2022-11-10T08:15:19.420Z,10.79
2022-11-10T08:16:39.425Z,10.81
2022-11-10T08:18:00.160Z,10.86
2022-11-10T08:19:20.044Z,10.89
2022-11-10T08:20:39.727Z,10.93
2022-11-10T08:21:59.617Z,10.92
2022-11-10T08:23:19.997Z,10.94
2022-11-10T08:24:40.034Z,10.92
2022-11-10T08:26:00.692Z,10.90
2022-11-10T08:27:20.468Z,10.84
2022-11-10T08:28:40.428Z,10.86
2022-11-10T08:30:00.200Z,10.87
2022-11-10T08:31:20.283Z,10.88
2022-11-10T08:32:40.114Z,10.88
2022-11-10T08:34:00.061Z,10.91
2022-11-10T08:35:20.055Z,10.87
2022-11-10T08:36:39.922Z,10.85
2022-11-10T08:38:09.762Z,10.90
2022-11-10T08:39:39.100Z,10.96
2022-11-10T08:40:59.795Z,10.98
2022-11-10T08:42:19.631Z,10.96
2022-11-10T08:43:39.542Z,10.98
2022-11-10T08:45:00.344Z,11.01
2022-11-10T08:46:20.444Z,11.03
2022-11-10T08:47:40.404Z,10.99
2022-11-10T08:49:00.132Z,10.98
2022-11-10T08:50:20.108Z,10.94
2022-11-10T08:51:40.054Z,10.95
2022-11-10T08:53:04.570Z,11.01
2022-11-10T08:54:24.690Z,11.06
2022-11-10T08:55:45.194Z,11.05
2022-11-10T08:57:05.335Z,11.12
2022-11-10T08:58:25.318Z,11.16
2022-11-10T08:59:45.197Z,11.14
2022-11-10T09:01:08.794Z,11.17
2022-11-10T09:02:28.940Z,11.21
2022-11-10T09:03:49.059Z,11.18
2022-11-10T09:05:09.321Z,11.20
2022-11-10T09:06:29.042Z,11.15
2022-11-10T09:07:49.831Z,11.17
2022-11-10T09:09:09.654Z,11.21
2022-11-10T09:10:30.403Z,11.22
2022-11-10T09:11:50.417Z,11.22
2022-11-10T09:13:11.152Z,11.23
2022-11-10T09:14:30.977Z,11.23
2022-11-10T09:15:50.673Z,11.24
2022-11-10T09:17:10.828Z,11.27
2022-11-10T09:18:31.153Z,11.28
2022-11-10T09:19:51.267Z,11.29
2022-11-10T09:21:11.533Z,11.25
2022-11-10T09:22:31.804Z,11.34
2022-11-10T09:23:51.597Z,11.46
2022-11-10T09:25:11.726Z,11.48
2022-11-10T09:26:31.614Z,11.59
2022-11-10T09:27:51.926Z,11.55
2022-11-10T09:29:12.118Z,11.55
2022-11-10T09:30:32.357Z,11.47
2022-11-10T09:31:52.453Z,11.46
2022-11-10T09:33:12.433Z,11.50
2022-11-10T09:34:32.434Z,11.45
2022-11-10T09:35:59.166Z,11.51
2022-11-10T09:37:19.062Z,11.50
2022-11-10T09:38:41.945Z,11.57
2022-11-10T09:40:02.018Z,11.67
2022-11-10T09:41:24.946Z,11.75
2022-11-10T09:42:46.783Z,11.76
2022-11-10T09:44:23.885Z,11.82
2022-11-10T09:45:48.449Z,11.79
2022-11-10T09:47:18.907Z,11.78
2022-11-10T09:48:54.728Z,11.78
2022-11-10T09:50:18.531Z,11.73
2022-11-10T09:51:46.987Z,11.73
2022-11-10T09:53:22.884Z,11.72
2022-11-10T09:54:45.161Z,11.69
2022-11-10T09:56:05.925Z,11.76
2022-11-10T09:57:26.808Z,11.80
2022-11-10T09:58:47.208Z,11.80
2022-11-10T10:00:07.416Z,11.81
2022-11-10T10:01:35.035Z,11.82
2022-11-10T10:02:59.038Z,11.84
2022-11-10T10:04:25.451Z,11.88
2022-11-10T10:05:50.597Z,11.82
2022-11-10T10:07:13.163Z,11.85
2022-11-10T10:08:44.996Z,11.89
2022-11-10T10:10:16.119Z,11.97
2022-11-10T10:11:37.517Z,12.12
2022-11-10T10:12:57.369Z,12.18
2022-11-10T10:14:38.320Z,12.16
2022-11-10T10:16:09.560Z,12.16
2022-11-10T10:17:41.306Z,12.17
2022-11-10T10:19:16.933Z,12.19
2022-11-10T10:21:03.066Z,12.21
2022-11-10T10:22:34.969Z,12.24
2022-11-10T10:24:16.581Z,12.25
2022-11-10T10:25:37.849Z,12.28
2022-11-10T10:26:59.032Z,12.29
2022-11-10T10:28:24.519Z,12.27
2022-11-10T10:29:46.449Z,12.27
2022-11-10T10:31:32.233Z,12.26
2022-11-10T10:32:56.918Z,12.30
2022-11-10T10:34:18.580Z,12.26
2022-11-10T10:35:41.771Z,12.26
2022-11-10T10:37:02.173Z,12.26
2022-11-10T10:38:33.486Z,12.32
2022-11-10T10:39:57.382Z,12.31
2022-11-10T10:41:28.334Z,12.33
2022-11-10T10:42:48.408Z,12.44
2022-11-10T10:44:13.488Z,12.55
2022-11-10T10:45:33.783Z,12.59
2022-11-10T10:46:58.110Z,12.62
2022-11-10T10:48:25.886Z,12.69
2022-11-10T10:49:46.008Z,12.81
2022-11-10T10:51:05.789Z,12.87
2022-11-10T10:52:25.927Z,12.96
2022-11-10T10:53:48.719Z,12.95
2022-11-10T10:55:08.696Z,12.93
2022-11-10T10:56:31.266Z,12.97
2022-11-10T10:57:58.470Z,13.02
2022-11-10T10:59:23.281Z,13.08
2022-11-10T11:00:44.093Z,13.04
2022-11-10T11:02:04.022Z,12.91
2022-11-10T11:03:37.351Z,12.96
2022-11-10T11:05:16.701Z,13.10
2022-11-10T11:06:36.913Z,13.13
2022-11-10T11:08:00.972Z,13.14
2022-11-10T11:09:23.637Z,13.26
2022-11-10T11:10:45.558Z,13.37
2022-11-10T11:12:06.936Z,13.49
2022-11-10T11:13:27.543Z,13.57
2022-11-10T11:14:47.547Z,13.63
2022-11-10T11:16:08.823Z,13.68
2022-11-10T11:17:28.669Z,13.73
2022-11-10T11:18:48.824Z,13.74
2022-11-10T11:20:15.235Z,13.74
2022-11-10T11:21:37.249Z,13.59
2022-11-10T11:22:58.920Z,13.53
2022-11-10T11:24:19.042Z,13.54
2022-11-10T11:25:41.941Z,13.54
2022-11-10T11:27:11.416Z,13.53
2022-11-10T11:28:37.512Z,13.54
2022-11-10T11:29:57.168Z,13.57
2022-11-10T11:31:17.154Z,13.56
2022-11-10T11:32:55.633Z,13.57
2022-11-10T11:34:44.685Z,13.63
2022-11-10T11:36:22.901Z,13.67
2022-11-10T11:37:50.448Z,13.66
2022-11-10T11:39:23.444Z,13.64
2022-11-10T11:40:46.879Z,13.57
2022-11-10T11:42:14.062Z,13.55
2022-11-10T11:43:52.904Z,13.49
2022-11-10T11:45:17.474Z,13.43
2022-11-10T11:46:37.465Z,13.37
2022-11-10T11:48:04.980Z,13.31
2022-11-10T11:49:40.441Z,13.30
2022-11-10T11:51:08.513Z,13.32
2022-11-10T11:52:33.507Z,13.29
2022-11-10T11:54:02.419Z,13.33
2022-11-10T11:55:25.434Z,13.33
2022-11-10T11:56:47.294Z,13.34
2022-11-10T11:58:36.388Z,13.35
2022-11-10T12:00:02.619Z,13.31
2022-11-10T12:01:28.421Z,13.32
2022-11-10T12:03:03.400Z,13.34
2022-11-10T12:04:58.665Z,13.32
2022-11-10T12:06:24.546Z,13.27
2022-11-10T12:07:50.184Z,13.29
2022-11-10T12:09:12.921Z,13.32
2022-11-10T12:10:43.381Z,13.34
2022-11-10T12:12:12.127Z,13.41
2022-11-10T12:13:36.578Z,13.46
2022-11-10T12:15:15.093Z,13.53
2022-11-10T12:16:35.692Z,13.56
2022-11-10T12:17:55.454Z,13.57
2022-11-10T12:19:35.326Z,13.51
2022-11-10T12:21:13.598Z,13.48
2022-11-10T12:22:48.907Z,13.55
2022-11-10T12:24:24.930Z,13.60
2022-11-10T12:25:58.288Z,13.61
2022-11-10T12:27:20.794Z,13.56
2022-11-10T12:29:03.880Z,13.59
2022-11-10T12:30:23.847Z,13.63
2022-11-10T12:31:45.488Z,13.69
2022-11-10T12:33:25.460Z,13.72
2022-11-10T12:34:52.230Z,13.72
2022-11-10T12:36:13.643Z,13.80
2022-11-10T12:37:40.920Z,13.73
2022-11-10T12:39:00.836Z,13.76
2022-11-10T12:40:22.364Z,13.77
2022-11-10T12:41:48.173Z,13.80
2022-11-10T12:43:18.653Z,13.80
2022-11-10T12:44:58.849Z,13.71
2022-11-10T12:46:18.739Z,13.63
2022-11-10T12:47:43.660Z,13.55
2022-11-10T12:49:22.325Z,13.54
2022-11-10T12:50:52.814Z,13.59
2022-11-10T12:52:16.943Z,13.51
2022-11-10T12:53:38.782Z,13.53
2022-11-10T12:54:59.958Z,13.56
2022-11-10T12:56:32.320Z,13.58
2022-11-10T12:57:52.506Z,13.52
2022-11-10T12:59:21.652Z,13.47
2022-11-10T13:01:01.821Z,13.38
2022-11-10T13:02:33.385Z,13.31
2022-11-10T13:03:55.940Z,13.26
2022-11-10T13:05:15.676Z,13.30
2022-11-10T13:06:36.021Z,13.32
2022-11-10T13:08:19.806Z,13.30
2022-11-10T13:09:42.152Z,13.31
2022-11-10T13:11:07.539Z,13.32
2022-11-10T13:12:27.341Z,13.33
2022-11-10T13:13:53.140Z,13.33
2022-11-10T13:15:50.803Z,13.30
2022-11-10T13:17:25.680Z,13.33
2022-11-10T13:18:52.577Z,13.47
2022-11-10T13:20:31.651Z,13.49
2022-11-10T13:22:03.698Z,13.53
2022-11-10T13:23:23.482Z,13.59
2022-11-10T13:24:43.261Z,13.51
2022-11-10T13:26:04.554Z,13.48
2022-11-10T13:27:24.505Z,13.49
2022-11-10T13:28:47.565Z,13.46
2022-11-10T13:30:07.596Z,13.52
2022-11-10T13:31:27.460Z,13.55
2022-11-10T13:32:47.296Z,13.61
2022-11-10T13:34:19.240Z,13.67
2022-11-10T13:35:38.930Z,13.61
2022-11-10T13:36:59.098Z,13.59
2022-11-10T13:38:37.691Z,13.61
2022-11-10T13:40:16.683Z,13.56
2022-11-10T13:41:45.189Z,13.53
2022-11-10T13:43:13.924Z,13.54
2022-11-10T13:44:36.372Z,13.56
2022-11-10T13:46:00.313Z,13.50
2022-11-10T13:47:39.816Z,13.48
2022-11-10T13:48:59.412Z,13.47
2022-11-10T13:50:29.971Z,13.51
2022-11-10T13:51:54.642Z,13.54
2022-11-10T13:53:30.093Z,13.49
2022-11-10T13:55:03.448Z,13.52
2022-11-10T13:56:26.589Z,13.29
2022-11-10T13:58:01.336Z,13.25
2022-11-10T13:59:22.492Z,13.24
2022-11-10T14:00:48.144Z,13.30
2022-11-10T14:02:37.463Z,13.33
2022-11-10T14:03:58.498Z,13.32
2022-11-10T14:05:30.972Z,13.12
2022-11-10T14:06:53.096Z,12.99
2022-11-10T14:08:16.747Z,12.96
2022-11-10T14:09:41.063Z,12.91
2022-11-10T14:11:03.443Z,12.90
2022-11-10T14:12:28.322Z,12.82
2022-11-10T14:14:00.729Z,12.81
2022-11-10T14:15:23.113Z,12.83
2022-11-10T14:16:43.628Z,12.78
2022-11-10T14:18:03.424Z,12.82
2022-11-10T14:19:31.189Z,12.83
2022-11-10T14:20:56.669Z,12.84
2022-11-10T14:22:16.441Z,12.86
2022-11-10T14:23:45.698Z,12.80
2022-11-10T14:25:14.416Z,12.71
2022-11-10T14:26:40.532Z,12.63
2022-11-10T14:28:00.324Z,12.60
2022-11-10T14:29:40.396Z,12.60
2022-11-10T14:31:00.413Z,12.59
2022-11-10T14:32:21.458Z,12.58
2022-11-10T14:33:41.554Z,12.45
2022-11-10T14:35:02.167Z,12.39
2022-11-10T14:36:21.932Z,12.38
2022-11-10T14:37:43.217Z,12.29
2022-11-10T14:39:06.013Z,12.31
2022-11-10T14:40:26.141Z,12.37
2022-11-10T14:41:49.529Z,12.41
2022-11-10T14:43:27.892Z,12.46
2022-11-10T14:44:47.982Z,12.40
2022-11-10T14:46:07.865Z,12.28
2022-11-10T14:47:29.357Z,12.18
2022-11-10T14:48:55.530Z,12.12
2022-11-10T14:50:15.323Z,11.97
2022-11-10T14:51:35.307Z,11.88
2022-11-10T14:52:57.795Z,11.91
2022-11-10T14:54:21.855Z,11.90
2022-11-10T14:55:43.262Z,11.88
2022-11-10T14:57:05.280Z,11.89
2022-11-10T14:58:27.764Z,11.85
2022-11-10T14:59:47.788Z,11.82
2022-11-10T15:01:20.480Z,11.76
2022-11-10T15:02:40.380Z,11.72
2022-11-10T15:04:04.679Z,11.62
2022-11-10T15:05:24.988Z,11.61
2022-11-10T15:06:47.273Z,11.57
2022-11-10T15:08:08.401Z,11.57
2022-11-10T15:09:29.918Z,11.54
2022-11-10T15:10:51.729Z,11.53
2022-11-10T15:12:26.625Z,11.56
2022-11-10T15:13:46.356Z,11.59
2022-11-10T15:15:19.694Z,11.57
2022-11-10T15:16:39.568Z,11.61
2022-11-10T15:17:59.321Z,11.62
2022-11-10T15:19:35.267Z,11.63
2022-11-10T15:21:00.708Z,11.64
2022-11-10T15:22:27.900Z,11.65
2022-11-10T15:23:53.059Z,11.73
2022-11-10T15:25:15.498Z,11.84
2022-11-10T15:26:39.897Z,11.93
2022-11-10T15:28:04.736Z,12.03
2022-11-10T15:29:24.582Z,12.10
2022-11-10T15:30:51.501Z,12.13
2022-11-10T15:32:16.123Z,12.19
2022-11-10T15:33:37.015Z,12.23
2022-11-10T15:35:06.975Z,12.29
2022-11-10T15:36:28.809Z,12.28
2022-11-10T15:38:20.870Z,12.20
2022-11-10T15:39:41.576Z,12.22
2022-11-10T15:41:10.753Z,12.26
2022-11-10T15:42:30.898Z,12.30
2022-11-10T15:43:50.823Z,12.32
2022-11-10T15:45:10.519Z,12.28
2022-11-10T15:46:30.685Z,12.25
2022-11-10T15:47:50.725Z,12.23
2022-11-10T15:49:22.179Z,12.14
2022-11-10T15:50:43.622Z,12.06
2022-11-10T15:52:05.279Z,12.07
2022-11-10T15:53:30.851Z,12.12
2022-11-10T15:54:50.974Z,12.09
2022-11-10T15:56:12.469Z,12.06
2022-11-10T15:57:32.485Z,12.06
2022-11-10T15:58:52.685Z,12.05
2022-11-10T16:00:12.871Z,12.03
2022-11-10T16:01:32.795Z,11.89
2022-11-10T16:02:53.071Z,11.89
2022-11-10T16:04:13.249Z,11.90
2022-11-10T16:05:33.183Z,11.88
2022-11-10T16:06:53.068Z,11.90
2022-11-10T16:08:14.398Z,11.92
2022-11-10T16:09:34.320Z,11.94
2022-11-10T16:10:55.738Z,11.95
2022-11-10T16:12:20.218Z,11.90
2022-11-10T16:13:40.318Z,11.77
2022-11-10T16:15:00.034Z,11.66
2022-11-10T16:16:20.047Z,11.59
2022-11-10T16:17:39.790Z,11.51
2022-11-10T16:18:59.577Z,11.46
2022-11-10T16:20:19.886Z,11.32
2022-11-10T16:21:39.774Z,11.25
2022-11-10T16:22:59.915Z,11.34
2022-11-10T16:24:19.912Z,11.43
2022-11-10T16:25:40.327Z,11.47
2022-11-10T16:27:00.378Z,11.47
2022-11-10T16:28:21.751Z,11.48
2022-11-10T16:29:42.652Z,11.50
2022-11-10T16:31:02.820Z,11.53
2022-11-10T16:32:23.135Z,11.54
2022-11-10T16:33:43.006Z,11.52
2022-11-10T16:35:03.145Z,11.52
2022-11-10T16:36:30.739Z,11.54
2022-11-10T16:37:50.809Z,11.55
2022-11-10T16:39:14.710Z,11.53
2022-11-10T16:40:34.671Z,11.49
2022-11-10T16:41:54.385Z,11.43
2022-11-10T16:43:17.965Z,11.41
2022-11-10T16:44:42.328Z,11.40
2022-11-10T16:46:04.343Z,11.36
2022-11-10T16:47:24.051Z,11.31
2022-11-10T16:48:44.911Z,11.33
2022-11-10T16:50:05.176Z,11.33
2022-11-10T16:51:35.145Z,11.33
2022-11-10T16:52:55.640Z,11.27
2022-11-10T16:54:16.001Z,11.18
2022-11-10T16:55:36.096Z,11.18
2022-11-10T16:56:55.988Z,11.17
2022-11-10T16:58:15.869Z,11.15
2022-11-10T16:59:35.704Z,11.08
2022-11-10T17:00:59.734Z,11.05
2022-11-10T17:02:28.468Z,11.00
2022-11-10T17:03:49.877Z,10.95
2022-11-10T17:05:13.237Z,10.94
2022-11-10T17:06:33.228Z,10.91
2022-11-10T17:07:53.486Z,10.90
2022-11-10T17:09:18.859Z,10.90
2022-11-10T17:10:38.794Z,10.87
2022-11-10T17:11:58.666Z,10.81
2022-11-10T17:13:18.834Z,10.79
2022-11-10T17:14:38.518Z,10.76
2022-11-10T17:16:06.164Z,10.71
2022-11-10T17:17:26.048Z,10.65
2022-11-10T17:18:46.127Z,10.62
2022-11-10T17:20:07.461Z,10.62
2022-11-10T17:21:32.698Z,10.51
2022-11-10T17:22:53.839Z,10.41
2022-11-10T17:24:14.931Z,10.19
2022-11-10T17:25:35.865Z,10.13
2022-11-10T17:26:55.660Z,10.19
2022-11-10T17:28:16.463Z,10.19
2022-11-10T17:29:36.721Z,10.25
2022-11-10T17:30:56.718Z,10.33
2022-11-10T17:32:16.893Z,10.34
2022-11-10T17:33:36.820Z,10.36
2022-11-10T17:34:57.024Z,10.39
2022-11-10T17:36:21.145Z,10.40
2022-11-10T17:37:42.973Z,10.42
2022-11-10T17:39:03.245Z,10.39
2022-11-10T17:40:24.692Z,10.42
2022-11-10T17:41:44.572Z,10.41
2022-11-10T17:43:04.392Z,10.37
2022-11-10T17:44:24.361Z,10.37
2022-11-10T17:45:44.425Z,10.40
2022-11-10T17:47:04.515Z,10.43
2022-11-10T17:48:31.524Z,10.43
2022-11-10T17:49:51.537Z,10.41
2022-11-10T17:51:18.239Z,10.36
2022-11-10T17:52:39.394Z,10.33
2022-11-10T17:54:00.770Z,10.30
2022-11-10T17:55:22.088Z,10.31
2022-11-10T17:56:42.080Z,10.22